North Zulch, TX (77872)

4:16 AM CDT on July 03, 2015 (GMT -0500)
Bennett's Retreat; Madison Co, TX | | Change Station
CLOSE
Current Station
Personal Weather Station
Location: Normangee, TX
Elevation: 374 ft
Nearby Weather Stations

Elev 374 ft 31.01 °N, 96.03 °W | Updated 1 minute ago

Clear
Clear
75.2 °F
Feels Like 76 °F
N
0.0
Wind Variable Wind from SSE
Gusts 0.0 mph

Today
High -- | Low -- °F
--% Chance of Precip.
Yesterday
High -- | Low -- °F
Precip. -- in
6:25 AM 8:31 PM
Full, 98% visible
Pressure 30.01 in
Visibility 10.0 miles
Clouds Scattered Clouds 1400 ft
Mostly Cloudy 1900 ft
Mostly Cloudy 2500 ft
Heat Index 76 °F
Dew Point 67 °F
Humidity 75%
Rainfall 0.00 in
Snow Depth Not available.
UV 0 out of 12
Pollen 3.70 out of 12
Air Quality Not available.
Flu Activity Not available.
METAR KCFD 030855Z AUTO 18005KT 10SM SCT014 BKN019 BKN025 24/24 A3001 RMK AO2 T02410240

More Conditions Fewer Conditions

Pressure 30.01 in
Visibility 10.0 miles
Clouds Scattered Clouds 1400 ft
Mostly Cloudy 1900 ft
Mostly Cloudy 2500 ft
Heat Index 76 °F
Dew Point 67 °F
Humidity 75%
Rainfall 0.00 in
Snow Depth Not available.
UV 0 out of 12
Pollen 3.70 out of 12
Air Quality Not available.
Flu Activity Not available.
METAR KCFD 030855Z AUTO 18005KT 10SM SCT014 BKN019 BKN025 24/24 A3001 RMK AO2 T02410240

More Conditions Fewer Conditions

10-Day Weather Forecast

×

Almanac

Astronomy

Jul. 03, 2015 Rise Set
Actual Time
Civil Twilight
Nautical Twilight
Astronomical Twilight
Moon
Length of Visible Light
Length of Day
Tomorrow will be .
, % of the Moon is Illuminated

Today's Extremes

State Highs State Lows

Community

WunderPhotos

Upload Photos

1,834,647 photos uploaded!

WunderBlogs® & News

Nearby

Air Quality

  Air Quality AQ Index Pollutant
Not available.

Snow Depth

Station Depth Elevation

Earthquake Activity

City Distance Mag. Time & Date
Minimum magnitude displayed is 2.5.

Coastal Water Temperatures

Place Temperature

Stations

Nearby Weather Stations

Station Location Temp. Windchill Dew Point Humidity Wind Precip. Elev Updated Type